sensor_id;sensor_type;location;lat;lon;timestamp;temperature;humidity
14016;DHT22;7083;48.854;9.158;2022-10-30T00:00:21;11.50;99.90
14016;DHT22;7083;48.854;9.158;2022-10-30T00:02:49;11.40;99.90
14016;DHT22;7083;48.854;9.158;2022-10-30T00:05:16;11.40;99.90
14016;DHT22;7083;48.854;9.158;2022-10-30T00:07:44;11.40;99.90
14016;DHT22;7083;48.854;9.158;2022-10-30T00:10:11;11.40;99.90
14016;DHT22;7083;48.854;9.158;2022-10-30T00:12:38;11.40;99.90
14016;DHT22;7083;48.854;9.158;2022-10-30T00:15:06;11.40;99.90
14016;DHT22;7083;48.854;9.158;2022-10-30T00:17:33;11.40;99.90
14016;DHT22;7083;48.854;9.158;2022-10-30T00:20:01;12.70;99.90
14016;DHT22;7083;48.854;9.158;2022-10-30T00:22:28;11.40;99.90
14016;DHT22;7083;48.854;9.158;2022-10-30T00:24:54;11.40;99.90
14016;DHT22;7083;48.854;9.158;2022-10-30T00:27:21;11.40;99.90
14016;DHT22;7083;48.854;9.158;2022-10-30T00:29:48;11.50;99.90
14016;DHT22;7083;48.854;9.158;2022-10-30T00:32:14;11.40;99.90
14016;DHT22;7083;48.854;9.158;2022-10-30T00:34:41;11.40;99.90
14016;DHT22;7083;48.854;9.158;2022-10-30T00:37:09;11.40;99.90
14016;DHT22;7083;48.854;9.158;2022-10-30T00:39:36;11.40;99.90
14016;DHT22;7083;48.854;9.158;2022-10-30T00:42:03;11.40;99.90
14016;DHT22;7083;48.854;9.158;2022-10-30T00:44:44;11.40;99.90
14016;DHT22;7083;48.854;9.158;2022-10-30T00:47:15;11.50;99.90
14016;DHT22;7083;48.854;9.158;2022-10-30T00:49:50;11.50;99.90
14016;DHT22;7083;48.854;9.158;2022-10-30T00:52:19;11.60;99.90
14016;DHT22;7083;48.854;9.158;2022-10-30T00:54:48;11.60;99.90
14016;DHT22;7083;48.854;9.158;2022-10-30T00:57:15;11.60;99.90
14016;DHT22;7083;48.854;9.158;2022-10-30T00:59:44;11.60;99.90
14016;DHT22;7083;48.854;9.158;2022-10-30T01:02:11;11.70;99.90
14016;DHT22;7083;48.854;9.158;2022-10-30T01:04:38;11.70;99.90
14016;DHT22;7083;48.854;9.158;2022-10-30T01:07:10;11.70;99.90
14016;DHT22;7083;48.854;9.158;2022-10-30T01:09:38;11.80;99.90
14016;DHT22;7083;48.854;9.158;2022-10-30T01:12:06;11.70;99.90
14016;DHT22;7083;48.854;9.158;2022-10-30T01:14:33;11.80;99.90
14016;DHT22;7083;48.854;9.158;2022-10-30T01:17:15;11.70;99.90
14016;DHT22;7083;48.854;9.158;2022-10-30T01:19:52;11.70;99.90
14016;DHT22;7083;48.854;9.158;2022-10-30T01:22:36;11.70;99.90
14016;DHT22;7083;48.854;9.158;2022-10-30T01:25:18;11.70;99.90
14016;DHT22;7083;48.854;9.158;2022-10-30T01:27:56;11.60;99.90
14016;DHT22;7083;48.854;9.158;2022-10-30T01:30:36;11.60;99.90
14016;DHT22;7083;48.854;9.158;2022-10-30T01:33:12;11.60;99.90
14016;DHT22;7083;48.854;9.158;2022-10-30T01:35:48;11.70;99.90
14016;DHT22;7083;48.854;9.158;2022-10-30T01:38:20;11.60;99.90
14016;DHT22;7083;48.854;9.158;2022-10-30T01:40:50;11.70;99.90
14016;DHT22;7083;48.854;9.158;2022-10-30T01:45:53;11.70;99.90
14016;DHT22;7083;48.854;9.158;2022-10-30T01:48:41;11.60;99.90
14016;DHT22;7083;48.854;9.158;2022-10-30T01:51:14;11.60;99.90
14016;DHT22;7083;48.854;9.158;2022-10-30T01:53:50;11.60;99.90
14016;DHT22;7083;48.854;9.158;2022-10-30T01:56:27;11.60;99.90
14016;DHT22;7083;48.854;9.158;2022-10-30T01:59:06;11.60;99.90
14016;DHT22;7083;48.854;9.158;2022-10-30T02:01:34;11.60;99.90
14016;DHT22;7083;48.854;9.158;2022-10-30T02:04:02;11.70;99.90
14016;DHT22;7083;48.854;9.158;2022-10-30T02:06:29;11.60;99.90
14016;DHT22;7083;48.854;9.158;2022-10-30T02:08:56;11.70;99.90
14016;DHT22;7083;48.854;9.158;2022-10-30T02:11:25;11.70;99.90
14016;DHT22;7083;48.854;9.158;2022-10-30T02:13:54;11.70;99.90
14016;DHT22;7083;48.854;9.158;2022-10-30T02:16:23;11.70;99.90
14016;DHT22;7083;48.854;9.158;2022-10-30T02:18:49;11.70;99.90
14016;DHT22;7083;48.854;9.158;2022-10-30T02:21:18;11.80;99.90
14016;DHT22;7083;48.854;9.158;2022-10-30T02:23:45;11.80;99.90
14016;DHT22;7083;48.854;9.158;2022-10-30T02:26:11;11.80;99.90
14016;DHT22;7083;48.854;9.158;2022-10-30T02:28:38;11.80;99.90
14016;DHT22;7083;48.854;9.158;2022-10-30T02:31:05;11.70;99.90
14016;DHT22;7083;48.854;9.158;2022-10-30T02:33:32;11.70;99.90
14016;DHT22;7083;48.854;9.158;2022-10-30T02:35:58;11.80;99.90
14016;DHT22;7083;48.854;9.158;2022-10-30T02:38:26;11.70;99.90
14016;DHT22;7083;48.854;9.158;2022-10-30T02:40:53;11.70;99.90
14016;DHT22;7083;48.854;9.158;2022-10-30T02:43:20;11.70;99.90
14016;DHT22;7083;48.854;9.158;2022-10-30T02:45:49;11.60;99.90
14016;DHT22;7083;48.854;9.158;2022-10-30T02:48:16;11.60;99.90
14016;DHT22;7083;48.854;9.158;2022-10-30T02:50:42;11.70;99.90
14016;DHT22;7083;48.854;9.158;2022-10-30T02:53:09;11.50;99.90
14016;DHT22;7083;48.854;9.158;2022-10-30T02:55:37;11.50;99.90
14016;DHT22;7083;48.854;9.158;2022-10-30T02:58:04;11.50;99.90
14016;DHT22;7083;48.854;9.158;2022-10-30T03:00:30;11.40;99.90
14016;DHT22;7083;48.854;9.158;2022-10-30T03:02:57;11.40;99.90
14016;DHT22;7083;48.854;9.158;2022-10-30T03:05:24;11.30;99.90
14016;DHT22;7083;48.854;9.158;2022-10-30T03:07:53;11.30;99.90
14016;DHT22;7083;48.854;9.158;2022-10-30T03:10:19;11.20;99.90
14016;DHT22;7083;48.854;9.158;2022-10-30T03:12:47;11.20;99.90
14016;DHT22;7083;48.854;9.158;2022-10-30T03:15:14;11.20;99.90
14016;DHT22;7083;48.854;9.158;2022-10-30T03:17:41;11.10;99.90
14016;DHT22;7083;48.854;9.158;2022-10-30T03:20:09;11.10;99.90
14016;DHT22;7083;48.854;9.158;2022-10-30T03:22:36;11.10;99.90
14016;DHT22;7083;48.854;9.158;2022-10-30T03:25:03;11.00;99.90
14016;DHT22;7083;48.854;9.158;2022-10-30T03:27:30;11.00;99.90
14016;DHT22;7083;48.854;9.158;2022-10-30T03:29:58;11.00;99.90
14016;DHT22;7083;48.854;9.158;2022-10-30T03:32:25;10.90;99.90
14016;DHT22;7083;48.854;9.158;2022-10-30T03:34:52;10.90;99.90
14016;DHT22;7083;48.854;9.158;2022-10-30T03:37:18;10.80;99.90
14016;DHT22;7083;48.854;9.158;2022-10-30T03:39:45;10.80;99.90
14016;DHT22;7083;48.854;9.158;2022-10-30T03:42:12;10.80;99.90
14016;DHT22;7083;48.854;9.158;2022-10-30T03:44:39;10.70;99.90
14016;DHT22;7083;48.854;9.158;2022-10-30T03:47:07;10.70;99.90
14016;DHT22;7083;48.854;9.158;2022-10-30T03:49:33;10.70;99.90
14016;DHT22;7083;48.854;9.158;2022-10-30T03:52:00;10.60;99.90
14016;DHT22;7083;48.854;9.158;2022-10-30T03:54:27;10.60;99.90
14016;DHT22;7083;48.854;9.158;2022-10-30T03:56:54;10.50;99.90
14016;DHT22;7083;48.854;9.158;2022-10-30T03:59:20;10.50;99.90
14016;DHT22;7083;48.854;9.158;2022-10-30T04:01:47;10.50;99.90
14016;DHT22;7083;48.854;9.158;2022-10-30T04:04:15;10.50;99.90
14016;DHT22;7083;48.854;9.158;2022-10-30T04:06:42;10.50;99.90
14016;DHT22;7083;48.854;9.158;2022-10-30T04:09:09;10.40;99.90
14016;DHT22;7083;48.854;9.158;2022-10-30T04:11:35;10.60;99.90
14016;DHT22;7083;48.854;9.158;2022-10-30T04:14:02;10.40;99.90
14016;DHT22;7083;48.854;9.158;2022-10-30T04:16:29;10.40;99.90
14016;DHT22;7083;48.854;9.158;2022-10-30T04:18:55;10.30;99.90
14016;DHT22;7083;48.854;9.158;2022-10-30T04:21:23;10.30;99.90
14016;DHT22;7083;48.854;9.158;2022-10-30T04:23:50;10.30;99.90
14016;DHT22;7083;48.854;9.158;2022-10-30T04:26:18;10.20;99.90
14016;DHT22;7083;48.854;9.158;2022-10-30T04:28:46;10.20;99.90
14016;DHT22;7083;48.854;9.158;2022-10-30T04:31:13;10.30;99.90
14016;DHT22;7083;48.854;9.158;2022-10-30T04:33:40;10.20;99.90
14016;DHT22;7083;48.854;9.158;2022-10-30T04:36:07;10.10;99.90
14016;DHT22;7083;48.854;9.158;2022-10-30T04:38:35;10.10;99.90
14016;DHT22;7083;48.854;9.158;2022-10-30T04:41:02;10.10;99.90
14016;DHT22;7083;48.854;9.158;2022-10-30T04:43:29;10.10;99.90
14016;DHT22;7083;48.854;9.158;2022-10-30T04:45:55;10.00;99.90
14016;DHT22;7083;48.854;9.158;2022-10-30T04:48:22;10.00;99.90
14016;DHT22;7083;48.854;9.158;2022-10-30T04:50:49;10.00;99.90
14016;DHT22;7083;48.854;9.158;2022-10-30T04:53:17;10.00;99.90
14016;DHT22;7083;48.854;9.158;2022-10-30T04:55:45;10.00;99.90
14016;DHT22;7083;48.854;9.158;2022-10-30T04:58:12;10.00;99.90
14016;DHT22;7083;48.854;9.158;2022-10-30T05:00:40;10.90;99.90
14016;DHT22;7083;48.854;9.158;2022-10-30T05:03:08;9.90;99.90
14016;DHT22;7083;48.854;9.158;2022-10-30T05:05:36;10.00;99.90
14016;DHT22;7083;48.854;9.158;2022-10-30T05:08:03;9.80;99.90
14016;DHT22;7083;48.854;9.158;2022-10-30T05:10:30;9.80;99.90
14016;DHT22;7083;48.854;9.158;2022-10-30T05:12:58;9.80;99.90
14016;DHT22;7083;48.854;9.158;2022-10-30T05:15:25;9.70;99.90
14016;DHT22;7083;48.854;9.158;2022-10-30T05:17:52;9.70;99.90
14016;DHT22;7083;48.854;9.158;2022-10-30T05:20:19;9.70;99.90
14016;DHT22;7083;48.854;9.158;2022-10-30T05:22:52;9.70;99.90
14016;DHT22;7083;48.854;9.158;2022-10-30T05:25:18;9.70;99.90
14016;DHT22;7083;48.854;9.158;2022-10-30T05:27:45;9.60;99.90
14016;DHT22;7083;48.854;9.158;2022-10-30T05:30:13;9.60;99.90
14016;DHT22;7083;48.854;9.158;2022-10-30T05:32:40;9.50;99.90
14016;DHT22;7083;48.854;9.158;2022-10-30T05:35:07;9.50;99.90
14016;DHT22;7083;48.854;9.158;2022-10-30T05:37:34;9.50;99.90
14016;DHT22;7083;48.854;9.158;2022-10-30T05:40:01;9.40;99.90
14016;DHT22;7083;48.854;9.158;2022-10-30T05:42:28;9.40;99.90
14016;DHT22;7083;48.854;9.158;2022-10-30T05:44:54;9.40;99.90
14016;DHT22;7083;48.854;9.158;2022-10-30T05:47:22;9.40;99.90
14016;DHT22;7083;48.854;9.158;2022-10-30T05:49:49;9.40;99.90
14016;DHT22;7083;48.854;9.158;2022-10-30T05:52:16;9.30;99.90
14016;DHT22;7083;48.854;9.158;2022-10-30T05:54:42;9.30;99.90
14016;DHT22;7083;48.854;9.158;2022-10-30T05:57:09;9.20;99.90
14016;DHT22;7083;48.854;9.158;2022-10-30T05:59:36;9.20;99.90
14016;DHT22;7083;48.854;9.158;2022-10-30T06:02:03;9.20;99.90
14016;DHT22;7083;48.854;9.158;2022-10-30T06:04:31;9.20;99.90
14016;DHT22;7083;48.854;9.158;2022-10-30T06:06:57;9.20;99.90
14016;DHT22;7083;48.854;9.158;2022-10-30T06:09:24;9.20;99.90
14016;DHT22;7083;48.854;9.158;2022-10-30T06:11:52;9.20;99.90
14016;DHT22;7083;48.854;9.158;2022-10-30T06:14:19;9.20;99.90
14016;DHT22;7083;48.854;9.158;2022-10-30T06:16:46;9.20;99.90
14016;DHT22;7083;48.854;9.158;2022-10-30T06:19:12;9.20;99.90
14016;DHT22;7083;48.854;9.158;2022-10-30T06:21:40;9.20;99.90
14016;DHT22;7083;48.854;9.158;2022-10-30T06:24:07;9.20;99.90
14016;DHT22;7083;48.854;9.158;2022-10-30T06:26:34;9.20;99.90
14016;DHT22;7083;48.854;9.158;2022-10-30T06:29:01;9.20;99.90
14016;DHT22;7083;48.854;9.158;2022-10-30T06:31:28;9.20;99.90
14016;DHT22;7083;48.854;9.158;2022-10-30T06:33:54;9.30;99.90
14016;DHT22;7083;48.854;9.158;2022-10-30T06:36:21;9.30;99.90
14016;DHT22;7083;48.854;9.158;2022-10-30T06:38:49;9.30;99.90
14016;DHT22;7083;48.854;9.158;2022-10-30T06:41:16;9.30;99.90
14016;DHT22;7083;48.854;9.158;2022-10-30T06:43:42;9.40;99.90
14016;DHT22;7083;48.854;9.158;2022-10-30T06:46:09;9.40;99.90
14016;DHT22;7083;48.854;9.158;2022-10-30T06:48:36;9.40;99.90
14016;DHT22;7083;48.854;9.158;2022-10-30T06:51:03;9.40;99.90
14016;DHT22;7083;48.854;9.158;2022-10-30T06:53:29;9.50;99.90
14016;DHT22;7083;48.854;9.158;2022-10-30T06:55:58;9.60;99.90
14016;DHT22;7083;48.854;9.158;2022-10-30T06:58:26;9.70;99.90
14016;DHT22;7083;48.854;9.158;2022-10-30T07:00:53;9.80;99.90
14016;DHT22;7083;48.854;9.158;2022-10-30T07:03:20;9.90;99.90
14016;DHT22;7083;48.854;9.158;2022-10-30T07:05:47;10.10;99.90
14016;DHT22;7083;48.854;9.158;2022-10-30T07:08:14;10.10;99.90
14016;DHT22;7083;48.854;9.158;2022-10-30T07:10:42;10.20;99.90
14016;DHT22;7083;48.854;9.158;2022-10-30T07:13:10;10.30;99.90
14016;DHT22;7083;48.854;9.158;2022-10-30T07:15:36;10.40;99.90
14016;DHT22;7083;48.854;9.158;2022-10-30T07:18:04;10.50;99.90
14016;DHT22;7083;48.854;9.158;2022-10-30T07:20:32;10.60;99.90
14016;DHT22;7083;48.854;9.158;2022-10-30T07:23:00;10.70;99.90
14016;DHT22;7083;48.854;9.158;2022-10-30T07:25:27;10.80;99.90
14016;DHT22;7083;48.854;9.158;2022-10-30T07:27:54;10.90;99.90
14016;DHT22;7083;48.854;9.158;2022-10-30T07:30:24;11.00;99.90
14016;DHT22;7083;48.854;9.158;2022-10-30T07:32:56;11.10;99.90
14016;DHT22;7083;48.854;9.158;2022-10-30T07:35:23;11.20;99.90
14016;DHT22;7083;48.854;9.158;2022-10-30T07:37:50;11.30;99.90
14016;DHT22;7083;48.854;9.158;2022-10-30T07:40:17;11.40;99.90
14016;DHT22;7083;48.854;9.158;2022-10-30T07:42:44;11.50;99.90
14016;DHT22;7083;48.854;9.158;2022-10-30T07:45:10;11.50;99.90
14016;DHT22;7083;48.854;9.158;2022-10-30T07:47:39;11.60;99.90
14016;DHT22;7083;48.854;9.158;2022-10-30T07:50:07;11.70;99.90
14016;DHT22;7083;48.854;9.158;2022-10-30T07:52:34;11.80;99.90
14016;DHT22;7083;48.854;9.158;2022-10-30T07:55:01;11.90;99.90
14016;DHT22;7083;48.854;9.158;2022-10-30T07:57:30;12.00;99.90
14016;DHT22;7083;48.854;9.158;2022-10-30T07:59:56;12.00;99.90
14016;DHT22;7083;48.854;9.158;2022-10-30T08:02:23;12.10;99.90
14016;DHT22;7083;48.854;9.158;2022-10-30T08:04:51;12.10;99.90
14016;DHT22;7083;48.854;9.158;2022-10-30T08:07:18;12.20;99.90
14016;DHT22;7083;48.854;9.158;2022-10-30T08:09:45;12.30;99.90
14016;DHT22;7083;48.854;9.158;2022-10-30T08:12:12;12.40;99.90
14016;DHT22;7083;48.854;9.158;2022-10-30T08:14:39;12.40;99.90
14016;DHT22;7083;48.854;9.158;2022-10-30T08:17:05;12.50;99.90
14016;DHT22;7083;48.854;9.158;2022-10-30T08:19:35;12.60;99.90
14016;DHT22;7083;48.854;9.158;2022-10-30T08:22:03;12.60;99.90
14016;DHT22;7083;48.854;9.158;2022-10-30T08:24:29;13.10;99.90
14016;DHT22;7083;48.854;9.158;2022-10-30T08:26:56;12.70;99.90
14016;DHT22;7083;48.854;9.158;2022-10-30T08:29:23;12.80;99.90
14016;DHT22;7083;48.854;9.158;2022-10-30T08:31:50;12.80;99.90
14016;DHT22;7083;48.854;9.158;2022-10-30T08:34:17;12.80;99.90
14016;DHT22;7083;48.854;9.158;2022-10-30T08:36:43;13.00;99.90
14016;DHT22;7083;48.854;9.158;2022-10-30T08:39:11;13.00;99.90
14016;DHT22;7083;48.854;9.158;2022-10-30T08:41:38;13.00;99.90
14016;DHT22;7083;48.854;9.158;2022-10-30T08:44:05;13.10;99.90
14016;DHT22;7083;48.854;9.158;2022-10-30T08:46:32;13.10;99.90
14016;DHT22;7083;48.854;9.158;2022-10-30T08:48:58;13.10;99.90
14016;DHT22;7083;48.854;9.158;2022-10-30T08:51:25;13.20;99.90
14016;DHT22;7083;48.854;9.158;2022-10-30T08:53:52;13.50;99.90
14016;DHT22;7083;48.854;9.158;2022-10-30T08:56:20;13.30;99.90
14016;DHT22;7083;48.854;9.158;2022-10-30T08:58:47;13.40;99.90
14016;DHT22;7083;48.854;9.158;2022-10-30T09:01:13;13.40;99.90
14016;DHT22;7083;48.854;9.158;2022-10-30T09:03:40;13.50;99.90
14016;DHT22;7083;48.854;9.158;2022-10-30T09:06:09;13.50;99.90
14016;DHT22;7083;48.854;9.158;2022-10-30T09:08:35;13.50;99.90
14016;DHT22;7083;48.854;9.158;2022-10-30T09:11:03;13.60;99.90
14016;DHT22;7083;48.854;9.158;2022-10-30T09:13:32;13.70;99.90
14016;DHT22;7083;48.854;9.158;2022-10-30T09:15:59;13.80;99.90
14016;DHT22;7083;48.854;9.158;2022-10-30T09:18:26;13.80;99.90
14016;DHT22;7083;48.854;9.158;2022-10-30T09:20:53;14.00;99.90
14016;DHT22;7083;48.854;9.158;2022-10-30T09:23:20;14.00;99.90
14016;DHT22;7083;48.854;9.158;2022-10-30T09:25:46;14.10;99.90
14016;DHT22;7083;48.854;9.158;2022-10-30T09:28:13;14.20;99.90
14016;DHT22;7083;48.854;9.158;2022-10-30T09:30:41;14.20;99.90
14016;DHT22;7083;48.854;9.158;2022-10-30T09:33:08;14.20;99.90
14016;DHT22;7083;48.854;9.158;2022-10-30T09:35:35;14.40;99.90
14016;DHT22;7083;48.854;9.158;2022-10-30T09:38:01;14.50;99.90
14016;DHT22;7083;48.854;9.158;2022-10-30T09:40:37;14.50;99.90
14016;DHT22;7083;48.854;9.158;2022-10-30T09:43:16;14.60;99.90
14016;DHT22;7083;48.854;9.158;2022-10-30T09:45:59;14.60;99.90
14016;DHT22;7083;48.854;9.158;2022-10-30T09:48:44;14.70;99.90
14016;DHT22;7083;48.854;9.158;2022-10-30T09:51:28;14.80;99.90
14016;DHT22;7083;48.854;9.158;2022-10-30T09:54:05;14.80;99.90
14016;DHT22;7083;48.854;9.158;2022-10-30T09:56:41;14.90;99.90
14016;DHT22;7083;48.854;9.158;2022-10-30T09:59:16;15.00;99.90
14016;DHT22;7083;48.854;9.158;2022-10-30T10:01:51;15.00;99.90
14016;DHT22;7083;48.854;9.158;2022-10-30T10:04:24;15.20;99.90
14016;DHT22;7083;48.854;9.158;2022-10-30T10:06:55;15.30;99.90
14016;DHT22;7083;48.854;9.158;2022-10-30T10:09:27;15.30;99.90
14016;DHT22;7083;48.854;9.158;2022-10-30T10:11:58;15.50;99.90
14016;DHT22;7083;48.854;9.158;2022-10-30T10:14:28;15.60;99.90
14016;DHT22;7083;48.854;9.158;2022-10-30T10:16:59;15.70;99.90
14016;DHT22;7083;48.854;9.158;2022-10-30T10:19:30;15.80;99.90
14016;DHT22;7083;48.854;9.158;2022-10-30T10:21:59;16.00;99.90
14016;DHT22;7083;48.854;9.158;2022-10-30T10:24:28;16.10;99.90
14016;DHT22;7083;48.854;9.158;2022-10-30T10:27:00;16.20;99.90
14016;DHT22;7083;48.854;9.158;2022-10-30T10:29:37;16.30;99.90
14016;DHT22;7083;48.854;9.158;2022-10-30T10:35:44;16.50;99.90
14016;DHT22;7083;48.854;9.158;2022-10-30T10:38:18;16.70;99.90
14016;DHT22;7083;48.854;9.158;2022-10-30T10:40:53;16.80;99.90
14016;DHT22;7083;48.854;9.158;2022-10-30T10:43:34;17.00;99.90
14016;DHT22;7083;48.854;9.158;2022-10-30T10:46:26;17.00;99.90
14016;DHT22;7083;48.854;9.158;2022-10-30T10:49:09;17.20;99.90
14016;DHT22;7083;48.854;9.158;2022-10-30T10:51:42;17.30;99.90
14016;DHT22;7083;48.854;9.158;2022-10-30T10:54:11;17.40;99.90
14016;DHT22;7083;48.854;9.158;2022-10-30T10:56:44;17.50;99.90
14016;DHT22;7083;48.854;9.158;2022-10-30T10:59:15;17.60;99.90
14016;DHT22;7083;48.854;9.158;2022-10-30T11:01:47;17.70;99.90
14016;DHT22;7083;48.854;9.158;2022-10-30T11:04:25;17.80;99.90
14016;DHT22;7083;48.854;9.158;2022-10-30T11:06:54;17.90;99.90
14016;DHT22;7083;48.854;9.158;2022-10-30T11:09:22;18.00;99.90
14016;DHT22;7083;48.854;9.158;2022-10-30T11:11:51;18.10;99.90
14016;DHT22;7083;48.854;9.158;2022-10-30T11:14:19;18.10;99.90
14016;DHT22;7083;48.854;9.158;2022-10-30T11:17:03;18.30;99.90
14016;DHT22;7083;48.854;9.158;2022-10-30T11:19:32;18.30;99.90
14016;DHT22;7083;48.854;9.158;2022-10-30T11:22:00;18.50;99.90
14016;DHT22;7083;48.854;9.158;2022-10-30T11:24:29;18.60;99.90
14016;DHT22;7083;48.854;9.158;2022-10-30T11:26:57;18.70;99.90
14016;DHT22;7083;48.854;9.158;2022-10-30T11:29:27;18.70;99.90
14016;DHT22;7083;48.854;9.158;2022-10-30T11:31:59;18.80;99.90
14016;DHT22;7083;48.854;9.158;2022-10-30T11:34:33;18.80;99.90
14016;DHT22;7083;48.854;9.158;2022-10-30T11:37:00;18.90;99.90
14016;DHT22;7083;48.854;9.158;2022-10-30T11:39:29;19.00;99.90
14016;DHT22;7083;48.854;9.158;2022-10-30T11:41:59;19.10;99.90
14016;DHT22;7083;48.854;9.158;2022-10-30T11:44:30;19.20;99.90
14016;DHT22;7083;48.854;9.158;2022-10-30T11:46:58;19.40;99.90
14016;DHT22;7083;48.854;9.158;2022-10-30T11:49:32;19.50;99.90
14016;DHT22;7083;48.854;9.158;2022-10-30T11:52:01;19.60;99.90
14016;DHT22;7083;48.854;9.158;2022-10-30T11:54:28;19.80;99.90
14016;DHT22;7083;48.854;9.158;2022-10-30T11:56:56;19.90;99.90
14016;DHT22;7083;48.854;9.158;2022-10-30T11:59:24;20.00;99.90
14016;DHT22;7083;48.854;9.158;2022-10-30T12:01:59;20.00;99.90
14016;DHT22;7083;48.854;9.158;2022-10-30T12:04:28;20.10;99.90
14016;DHT22;7083;48.854;9.158;2022-10-30T12:07:10;20.20;99.90
14016;DHT22;7083;48.854;9.158;2022-10-30T12:09:43;20.30;99.90
14016;DHT22;7083;48.854;9.158;2022-10-30T12:12:11;20.40;99.90
14016;DHT22;7083;48.854;9.158;2022-10-30T12:14:44;20.40;99.90
14016;DHT22;7083;48.854;9.158;2022-10-30T12:17:13;21.20;99.90
14016;DHT22;7083;48.854;9.158;2022-10-30T12:19:45;20.70;99.90
14016;DHT22;7083;48.854;9.158;2022-10-30T12:22:23;20.90;99.90
14016;DHT22;7083;48.854;9.158;2022-10-30T12:24:51;21.00;99.90
14016;DHT22;7083;48.854;9.158;2022-10-30T12:27:18;21.10;99.90
14016;DHT22;7083;48.854;9.158;2022-10-30T12:30:01;21.20;99.90
14016;DHT22;7083;48.854;9.158;2022-10-30T12:32:41;21.30;99.70
14016;DHT22;7083;48.854;9.158;2022-10-30T12:35:17;21.40;99.10
14016;DHT22;7083;48.854;9.158;2022-10-30T12:37:52;21.50;98.10
14016;DHT22;7083;48.854;9.158;2022-10-30T12:40:23;21.70;97.90
14016;DHT22;7083;48.854;9.158;2022-10-30T12:42:56;21.60;97.00
14016;DHT22;7083;48.854;9.158;2022-10-30T12:45:29;21.70;96.90
14016;DHT22;7083;48.854;9.158;2022-10-30T12:48:00;21.80;96.50
14016;DHT22;7083;48.854;9.158;2022-10-30T12:50:35;21.90;96.40
14016;DHT22;7083;48.854;9.158;2022-10-30T12:53:11;22.00;96.30
14016;DHT22;7083;48.854;9.158;2022-10-30T12:55:43;22.10;95.80
14016;DHT22;7083;48.854;9.158;2022-10-30T12:58:17;22.10;95.00
14016;DHT22;7083;48.854;9.158;2022-10-30T13:00:53;22.20;95.40
14016;DHT22;7083;48.854;9.158;2022-10-30T13:03:27;22.30;94.80
14016;DHT22;7083;48.854;9.158;2022-10-30T13:05:58;22.30;94.50
14016;DHT22;7083;48.854;9.158;2022-10-30T13:08:31;22.30;94.20
14016;DHT22;7083;48.854;9.158;2022-10-30T13:11:03;22.40;94.40
14016;DHT22;7083;48.854;9.158;2022-10-30T13:13:35;22.40;93.90
14016;DHT22;7083;48.854;9.158;2022-10-30T13:16:09;22.40;93.60
14016;DHT22;7083;48.854;9.158;2022-10-30T13:18:37;22.40;94.10
14016;DHT22;7083;48.854;9.158;2022-10-30T13:21:18;22.40;93.30
14016;DHT22;7083;48.854;9.158;2022-10-30T13:23:51;22.40;93.90
14016;DHT22;7083;48.854;9.158;2022-10-30T13:26:25;22.40;93.60
14016;DHT22;7083;48.854;9.158;2022-10-30T13:29:00;22.40;93.40
14016;DHT22;7083;48.854;9.158;2022-10-30T13:31:34;22.30;93.20
14016;DHT22;7083;48.854;9.158;2022-10-30T13:34:15;22.10;92.70
14016;DHT22;7083;48.854;9.158;2022-10-30T13:36:49;22.40;93.50
14016;DHT22;7083;48.854;9.158;2022-10-30T13:39:24;22.50;93.60
14016;DHT22;7083;48.854;9.158;2022-10-30T13:42:02;22.50;94.10
14016;DHT22;7083;48.854;9.158;2022-10-30T13:44:37;22.20;93.80
14016;DHT22;7083;48.854;9.158;2022-10-30T13:47:13;22.70;93.20
14016;DHT22;7083;48.854;9.158;2022-10-30T13:49:53;22.80;92.90
14016;DHT22;7083;48.854;9.158;2022-10-30T13:52:26;23.00;92.10
14016;DHT22;7083;48.854;9.158;2022-10-30T13:54:59;23.30;91.50
14016;DHT22;7083;48.854;9.158;2022-10-30T13:57:32;23.60;91.40
14016;DHT22;7083;48.854;9.158;2022-10-30T14:00:04;24.00;90.70
14016;DHT22;7083;48.854;9.158;2022-10-30T14:02:48;24.40;90.10
14016;DHT22;7083;48.854;9.158;2022-10-30T14:05:26;24.70;90.10
14016;DHT22;7083;48.854;9.158;2022-10-30T14:08:01;24.90;86.70
14016;DHT22;7083;48.854;9.158;2022-10-30T14:10:43;24.70;86.20
14016;DHT22;7083;48.854;9.158;2022-10-30T14:13:16;24.40;86.30
14016;DHT22;7083;48.854;9.158;2022-10-30T14:15:44;24.00;87.40
14016;DHT22;7083;48.854;9.158;2022-10-30T14:18:41;23.70;89.40
14016;DHT22;7083;48.854;9.158;2022-10-30T14:24:14;22.90;91.40
14016;DHT22;7083;48.854;9.158;2022-10-30T14:26:49;22.60;92.90
14016;DHT22;7083;48.854;9.158;2022-10-30T14:29:37;22.40;94.30
14016;DHT22;7083;48.854;9.158;2022-10-30T14:32:33;22.10;94.40
14016;DHT22;7083;48.854;9.158;2022-10-30T14:35:00;21.90;94.80
14016;DHT22;7083;48.854;9.158;2022-10-30T14:37:55;21.70;95.10
14016;DHT22;7083;48.854;9.158;2022-10-30T14:40:33;21.50;95.70
14016;DHT22;7083;48.854;9.158;2022-10-30T14:43:08;21.30;97.10
14016;DHT22;7083;48.854;9.158;2022-10-30T14:45:42;21.10;98.50
14016;DHT22;7083;48.854;9.158;2022-10-30T14:48:17;21.00;99.80
14016;DHT22;7083;48.854;9.158;2022-10-30T14:51:00;20.80;99.90
14016;DHT22;7083;48.854;9.158;2022-10-30T14:53:40;20.70;99.90
14016;DHT22;7083;48.854;9.158;2022-10-30T14:56:20;20.50;99.90
14016;DHT22;7083;48.854;9.158;2022-10-30T14:59:20;20.40;99.90
14016;DHT22;7083;48.854;9.158;2022-10-30T15:02:01;20.30;99.90
14016;DHT22;7083;48.854;9.158;2022-10-30T15:04:38;20.10;99.90
14016;DHT22;7083;48.854;9.158;2022-10-30T15:07:16;20.00;99.90
14016;DHT22;7083;48.854;9.158;2022-10-30T15:10:00;19.90;99.90
14016;DHT22;7083;48.854;9.158;2022-10-30T15:12:46;19.80;99.90
14016;DHT22;7083;48.854;9.158;2022-10-30T15:15:17;19.70;99.90
14016;DHT22;7083;48.854;9.158;2022-10-30T15:17:46;19.60;99.90
14016;DHT22;7083;48.854;9.158;2022-10-30T15:20:17;19.40;99.90
14016;DHT22;7083;48.854;9.158;2022-10-30T15:22:46;19.30;99.90
14016;DHT22;7083;48.854;9.158;2022-10-30T15:25:17;19.10;99.90
14016;DHT22;7083;48.854;9.158;2022-10-30T15:27:45;19.00;99.90
14016;DHT22;7083;48.854;9.158;2022-10-30T15:30:17;18.90;99.90
14016;DHT22;7083;48.854;9.158;2022-10-30T15:32:45;18.80;99.90
14016;DHT22;7083;48.854;9.158;2022-10-30T15:35:15;18.60;99.90
14016;DHT22;7083;48.854;9.158;2022-10-30T15:37:59;18.50;99.90
14016;DHT22;7083;48.854;9.158;2022-10-30T15:40:26;18.40;99.90
14016;DHT22;7083;48.854;9.158;2022-10-30T15:42:54;18.30;99.90
14016;DHT22;7083;48.854;9.158;2022-10-30T15:45:24;18.10;99.90
14016;DHT22;7083;48.854;9.158;2022-10-30T15:47:58;18.10;99.90
14016;DHT22;7083;48.854;9.158;2022-10-30T15:50:26;17.90;99.90
14016;DHT22;7083;48.854;9.158;2022-10-30T15:52:53;17.80;99.90
14016;DHT22;7083;48.854;9.158;2022-10-30T15:55:26;17.70;99.90
14016;DHT22;7083;48.854;9.158;2022-10-30T15:57:56;17.50;99.90
14016;DHT22;7083;48.854;9.158;2022-10-30T16:00:26;17.40;99.90
14016;DHT22;7083;48.854;9.158;2022-10-30T16:02:59;17.20;99.90
14016;DHT22;7083;48.854;9.158;2022-10-30T16:05:26;17.10;99.90
14016;DHT22;7083;48.854;9.158;2022-10-30T16:07:54;16.90;99.90
14016;DHT22;7083;48.854;9.158;2022-10-30T16:10:23;16.90;99.90
14016;DHT22;7083;48.854;9.158;2022-10-30T16:12:50;16.70;99.90
14016;DHT22;7083;48.854;9.158;2022-10-30T16:15:26;16.50;99.90